KTUP/TUP METAR and TAF weather

Enter ICAO airport designator
Station Type Date Time Source
KTUP METAR 2023/02/06 18:53 UTC NOAA

KTUP 061853Z 16008KT 130V200 10SM CLR 18/06 A3017 RMK AO2 SLP217 T01780061 $


Station Type Date Time Source
KTUP Decoded METAR 2023/02/06 18:53 UTC NOAA

TUPELO REGIONAL AIRPORT, MS, United States (KTUP) 34-16N 88-46W 105M
Feb 06, 2023 - 01:53 PM EST / 2023.02.06 1853 UTC
Wind: from the SSE (160 degrees) at 9 MPH (8 KT) (direction variable):0
Visibility: 10 mile(s):0
Sky conditions: clear
Temperature: 64.0 F (17.8 C)
Dew Point: 43.0 F (6.1 C)
Relative Humidity: 46%
Pressure (altimeter): 30.17 in. Hg (1021 hPa)
ob: KTUP 061853Z 16008KT 130V200 10SM CLR 18/06 A3017 RMK AO2 SLP217 T01780061
cycle: 19

Station Type Date Time Source
KTUP TAF 2023/02/06 18:51 UTC NOAA

KTUP 061724Z 0618/0718 17009KT P6SM FEW250
FM070000 17006KT P6SM SCT250
FM071300 19007KT P6SM OVC025

Example: see airport list